1897 Cyclonic Storm NOT_NAMED (1897225N21088)


IBTrACS version v04r00. Visit IBTrACS website for data access.
Please direct all questions to the IBTrACS Q and A forum

Storm track - Intensity - Wind Radii - Intensity Data - Source Data - All data

Summary Information

Storm ID 1897225N21088
Start Aug 13 00Z
Landfall Aug 13 06Z
Max Intensity 45 kt (Aug 13 03Z)
End Aug 19 03Z
ATCF IDs
Track status Best track data.

Storm track plot

Map of storm track

Intensity plots

Map of storm track

Radial wind information

No radial wind information for this storm


Position and Intensity Table

BASIN ISO_TIME_________ NATURE LAT LON DS824 WIND
degrees north degrees east kts
NI 1897-08-13 00:00:00 TS 21.10 87.90 45
NI 03:00:00 TS 21.16 87.34 45
NI 06:00:00 TS 21.26 86.54 45
NI 09:00:00 TS 21.37 85.70 45
NI 12:00:00 TS 21.51 84.92 45
NI 15:00:00 TS 21.69 84.14 41
NI 18:00:00 TS 21.92 83.39 37
NI 21:00:00 TS 22.21 82.61 33
NI 1897-08-14 00:00:00 TS 22.48 81.96 30
NI 03:00:00 TS 22.66 81.56 30
NI 06:00:00 TS 22.78 81.34 30
NI 09:00:00 TS 22.91 81.17 30
NI 12:00:00 TS 23.04 81.04 30
NI 15:00:00 TS 23.17 80.93 30
NI 18:00:00 TS 23.33 80.75 30
NI 21:00:00 TS 23.50 80.55 30
NI 1897-08-15 00:00:00 TS 23.64 80.37 30
NI 03:00:00 TS 23.71 80.26 30
NI 06:00:00 TS 23.73 80.21 30
NI 09:00:00 TS 23.76 80.16 30
NI 12:00:00 TS 23.79 80.11 30
NI 15:00:00 TS 23.82 80.07 30
NI 18:00:00 TS 23.87 80.04 30
NI 21:00:00 TS 23.94 80.01 30
NI 1897-08-16 00:00:00 TS 24.04 79.95 30
NI 03:00:00 TS 24.20 79.81 30
NI 06:00:00 TS 24.37 79.62 30
NI 09:00:00 TS 24.52 79.43 30
NI 12:00:00 TS 24.69 79.22 30
NI 15:00:00 TS 24.92 78.98 30
NI 18:00:00 TS 25.15 78.76 30
NI 21:00:00 TS 25.37 78.58 30
NI 1897-08-17 00:00:00 TS 25.64 78.35 30
NI 03:00:00 TS 26.01 77.99 30
NI 06:00:00 TS 26.45 77.56 30
NI 09:00:00 TS 26.91 77.12 30
NI 12:00:00 TS 27.37 76.65 30
NI 15:00:00 TS 27.80 76.12 30
NI 18:00:00 TS 28.23 75.57 30
NI 21:00:00 TS 28.68 75.03 30
NI 1897-08-18 00:00:00 TS 29.05 74.59 30
NI 03:00:00 TS 29.28 74.34 30
NI 06:00:00 TS 29.38 74.26 30
NI 09:00:00 TS 29.44 74.21 30
NI 12:00:00 TS 29.48 74.19 30
NI 15:00:00 TS 29.55 74.18 30
NI 18:00:00 TS 29.62 74.14 30
NI 21:00:00 TS 29.72 74.07 30
NI 1897-08-19 00:00:00 TS 29.82 73.97 30
NI 03:00:00 NR 29.90 73.90

Source Information

Agency Information
USA
TOKYO
CMA
HKO
NEWDELHI
REUNION
BOM
NADI
WELLINGTON
DS824 n_ind.dat:231:NOT NAMED
TD9636 cons_worldwide_trop_cyclone_18710101-19891231-004:Line=2312
TD9635
NEUMANN
MLC

All available IBTrACS Data

SEASON BASIN SUBBASIN ISO_TIME_________ NATURE LAT LON DIST2LAND LANDFALL IFLAG USA SSHS DS824 LAT DS824 LON DS824 STAGE DS824 WIND TD9636 LAT TD9636 LON TD9636 STAGE STORM SPEED STORM DIR
Year degrees north degrees east km km 1 degrees north degrees east kts degrees north degrees east kts degrees
1897 NI BB 1897-08-13 00:00:00 TS 21.10 87.90 63 44 _________O____ -1 21.10 87.90 TC 45 11 277
1897 NI BB 03:00:00 TS 21.16 87.34 38 0 _________PO___ -1 21.19 87.06 TC 45 21.10 87.90 3 13 277
1897 NI BB 06:00:00 TS 21.26 86.54 0 0 _________OP___ -1 21.30 86.20 TC 45 21.19 87.04 3 15 278
1897 NI BB 09:00:00 TS 21.37 85.70 0 0 _________PP___ -1 21.43 85.33 TC 45 21.29 86.19 3 15 280
1897 NI BB 12:00:00 TS 21.51 84.92 0 0 _________OP___ -1 21.60 84.50 TC 45 21.42 85.34 3 15 282
1897 NI BB 15:00:00 TS 21.69 84.14 0 0 _________PO___ -1 21.78 83.78 TC 41 21.60 84.50 3 15 286
1897 NI BB 18:00:00 TS 21.92 83.39 0 0 _________OP___ -1 22.00 83.10 TC 37 21.83 83.67 3 15 290
1897 NI BB 21:00:00 TS 22.21 82.61 0 0 _________PP___ -1 22.32 82.33 TC 33 22.10 82.90 3 14 293
1897 NI BB 1897-08-14 00:00:00 TS 22.48 81.96 0 0 _________OP___ -1 22.60 81.70 TC 30 22.37 82.23 3 11 295
1897 NI BB 03:00:00 TS 22.66 81.56 0 0 _________PO___ -1 22.72 81.42 TC 30 22.60 81.70 1 7 297
1897 NI BB 06:00:00 TS 22.78 81.34 0 0 _________OP___ -1 22.80 81.30 TC 30 22.75 81.37 1 4 305
1897 NI BB 09:00:00 TS 22.91 81.17 0 0 _________PP___ -1 22.94 81.14 TC 30 22.88 81.19 1 4 315
1897 NI BB 12:00:00 TS 23.04 81.04 0 0 _________OP___ -1 23.10 81.00 TC 30 22.99 81.09 1 3 320
1897 NI BB 15:00:00 TS 23.17 80.93 0 0 _________PO___ -1 23.25 80.86 TC 30 23.10 81.00 1 4 317
1897 NI BB 18:00:00 TS 23.33 80.75 0 0 _________OP___ -1 23.40 80.70 TC 30 23.26 80.80 1 5 313
1897 NI BB 21:00:00 TS 23.50 80.55 0 0 _________PP___ -1 23.57 80.49 TC 30 23.43 80.61 1 5 311
1897 NI BB 1897-08-15 00:00:00 TS 23.64 80.37 0 0 _________OP___ -1 23.70 80.30 TC 30 23.58 80.44 1 3 308
1897 NI BB 03:00:00 TS 23.71 80.26 0 0 _________PO___ -1 23.71 80.23 TC 30 23.70 80.30 1 2 300
1897 NI BB 06:00:00 TS 23.73 80.21 0 0 _________OP___ -1 23.70 80.20 TC 30 23.75 80.21 1 1 297
1897 NI BB 09:00:00 TS 23.76 80.16 0 0 _________PP___ -1 23.74 80.15 TC 30 23.77 80.16 1 1 305
1897 NI BB 12:00:00 TS 23.79 80.11 0 0 _________OP___ -1 23.80 80.10 TC 30 23.78 80.13 1 1 308
1897 NI BB 15:00:00 TS 23.82 80.07 0 0 _________PO___ -1 23.84 80.05 TC 30 23.80 80.10 1 1 321
1897 NI BB 18:00:00 TS 23.87 80.04 0 0 _________OP___ -1 23.90 80.00 TC 30 23.84 80.07 1 1 336
1897 NI BB 21:00:00 TS 23.94 80.01 0 0 _________PP___ -1 23.98 79.97 TC 30 23.90 80.04 1 2 335
1897 NI BB 1897-08-16 00:00:00 TS 24.04 79.95 0 0 _________OP___ -1 24.10 79.90 TC 30 23.99 79.99 1 3 324
1897 NI BB 03:00:00 TS 24.20 79.81 0 0 _________PO___ -1 24.29 79.72 TC 30 24.10 79.90 1 4 318
1897 NI BB 06:00:00 TS 24.37 79.62 0 0 _________OP___ -1 24.50 79.50 TC 30 24.23 79.75 1 5 313
1897 NI BB 09:00:00 TS 24.52 79.43 0 0 _________PP___ -1 24.64 79.31 TC 30 24.40 79.55 1 5 311
1897 NI BB 12:00:00 TS 24.69 79.22 0 0 _________OP___ -1 24.80 79.10 TC 30 24.59 79.33 1 6 314
1897 NI BB 15:00:00 TS 24.92 78.98 0 0 _________PO___ -1 25.04 78.85 TC 30 24.80 79.10 1 6 318
1897 NI BB 18:00:00 TS 25.15 78.76 0 0 _________OP___ -1 25.30 78.60 TC 30 25.00 78.92 1 6 321
1897 NI BB 21:00:00 TS 25.37 78.58 0 0 _________PP___ -1 25.52 78.43 TC 30 25.22 78.72 1 6 323
1897 NI BB 1897-08-17 00:00:00 TS 25.64 78.35 0 0 _________OP___ -1 25.80 78.20 TC 30 25.48 78.49 1 8 321
1897 NI AS 03:00:00 TS 26.01 77.99 0 0 _________PO___ -1 26.22 77.79 TC 30 25.80 78.20 1 11 319
1897 NI AS 06:00:00 TS 26.45 77.56 0 0 _________OP___ -1 26.70 77.30 TC 30 26.20 77.82 1 12 319
1897 NI AS 09:00:00 TS 26.91 77.12 0 0 _________PP___ -1 27.16 76.86 TC 30 26.66 77.38 1 12 318
1897 NI AS 12:00:00 TS 27.37 76.65 0 0 _________OP___ -1 27.60 76.40 TC 30 27.13 76.90 1 13 315
1897 NI AS 15:00:00 TS 27.80 76.12 0 0 _________PO___ -1 28.01 75.85 TC 30 27.60 76.40 1 13 312
1897 NI AS 18:00:00 TS 28.23 75.57 0 0 _________OP___ -1 28.40 75.30 TC 30 28.07 75.84 1 13 312
1897 NI AS 21:00:00 TS 28.68 75.03 0 0 _________PP___ -1 28.85 74.78 TC 30 28.51 75.28 1 12 314
1897 NI AS 1897-08-18 00:00:00 TS 29.05 74.59 0 0 _________OP___ -1 29.20 74.40 TC 30 28.90 74.78 1 8 315
1897 NI AS 03:00:00 TS 29.28 74.34 0 0 _________PO___ -1 29.35 74.29 TC 30 29.20 74.40 1 4 319
1897 NI AS 06:00:00 TS 29.38 74.26 0 0 _________OP___ -1 29.40 74.30 TC 30 29.36 74.22 1 2 325
1897 NI AS 09:00:00 TS 29.44 74.21 0 0 _________PP___ -1 29.45 74.25 TC 30 29.44 74.17 1 1 331
1897 NI AS 12:00:00 TS 29.48 74.19 0 0 _________OP___ -1 29.50 74.20 TC 30 29.47 74.18 1 1 347
1897 NI AS 15:00:00 TS 29.55 74.18 0 0 _________PO___ -1 29.59 74.16 TC 30 29.50 74.20 1 1 344
1897 NI AS 18:00:00 TS 29.62 74.14 0 0 _________OP___ -1 29.70 74.10 TC 30 29.56 74.17 1 2 331
1897 NI AS 21:00:00 TS 29.72 74.07 0 0 _________PP___ -1 29.80 74.01 TC 30 29.66 74.11 1 2 323
1897 NI AS 1897-08-19 00:00:00 TS 29.82 73.97 0 0 _________OP___ -1 29.90 73.90 TC 30 29.77 74.01 1 2 321
1897 NI AS 03:00:00 NR 29.90 73.90 0 __________O___ -1 TC 29.90 73.90 1 2 319